Airfield :
LOGIN :

Register | Disclaimer

   EN    FR    IT 

 










Legend :    VFR   Marginal VFR   IFR   Intensive IFR   Very Intensive IFR
Visi :
Ceiling :
>= 8 km
>= 3000ft
5 to 8 km
1000 to 3000 ft
1500m to 5 km
500 to 1000 ft
800 to 1500m
200 to 500 ft
< 800m
< 200 ft
Symbols :   Thunderstorms  Fog  Heavy snow  Heavy precipitations  Wind > 20 kt
SIGMETs :     Misc.  Thunderstorms  Icing  Turbulence  Mountain Waves  Volcanic Ashes






- Airport Elevation : 302 ft
- IATA code : CGN


EDDK - Cologne Bonn

CURRENT METAR :
  • 212220Z AUTO 15008KT CAVOK 14/13 Q0999 NOSIG

EXPIRED METARs :
  • 212150Z AUTO 15006KT CAVOK 14/13 Q0999 NOSIG
  • 212120Z AUTO 14005KT 110V170 CAVOK 14/13 Q1000 NOSIG
  • 212050Z AUTO 13006KT CAVOK 14/13 Q0999 NOSIG
  • 212020Z AUTO 14005KT CAVOK 14/14 Q0999 NOSIG
  • 211950Z AUTO 14005KT 100V170 9999 -RA NSC 14/13 Q0999 NOSIG

TAF TAF EDDK
Valid from the 21 at 18:00 until the 23 at 00:00 UTC


211700Z 2118/2224 17006KT 9999 BKN030
TEMPO 2118/2121 4000 RA
PROB30
TEMPO 2118/2121 BKN010
BECMG 2207/2210 20012KT
TEMPO 2210/2213 20015G25KT
TEMPO 2214/2219 SHRA BKN030CB
BECMG 2217/2220 20005KT



MET'MAP, your aeronautical weather chart ! - Copyright ORBIFLY December 2007 - Disclaimer

ORBIFLY MET'MAP TEAM :

Programming & Development : Alexandra Zaïnal
Original concept : Baudouin d'Aumeries
Technical & hardware support : Manuel Goepfert
Assistance : Marc-Olivier Méhu




SOURCES & CREDITS :

   NOAA